sensor_id;sensor_type;location;lat;lon;timestamp;temperature;humidity
17813;DHT22;9030;50.792;8.320;2023-05-14T00:00:45;7.40;99.90
17813;DHT22;9030;50.792;8.320;2023-05-14T00:03:12;7.40;99.90
17813;DHT22;9030;50.792;8.320;2023-05-14T00:05:39;7.40;99.90
17813;DHT22;9030;50.792;8.320;2023-05-14T00:08:06;7.40;99.90
17813;DHT22;9030;50.792;8.320;2023-05-14T00:10:33;7.50;99.90
17813;DHT22;9030;50.792;8.320;2023-05-14T00:13:00;7.40;99.90
17813;DHT22;9030;50.792;8.320;2023-05-14T00:15:28;7.40;99.90
17813;DHT22;9030;50.792;8.320;2023-05-14T00:17:55;7.30;99.90
17813;DHT22;9030;50.792;8.320;2023-05-14T00:20:21;7.40;99.90
17813;DHT22;9030;50.792;8.320;2023-05-14T00:22:48;7.40;99.90
17813;DHT22;9030;50.792;8.320;2023-05-14T00:25:15;7.40;99.90
17813;DHT22;9030;50.792;8.320;2023-05-14T00:27:41;7.40;99.90
17813;DHT22;9030;50.792;8.320;2023-05-14T00:30:09;7.30;99.90
17813;DHT22;9030;50.792;8.320;2023-05-14T00:32:37;7.30;99.90
17813;DHT22;9030;50.792;8.320;2023-05-14T00:35:04;7.30;99.90
17813;DHT22;9030;50.792;8.320;2023-05-14T00:37:31;7.30;99.90
17813;DHT22;9030;50.792;8.320;2023-05-14T00:39:58;7.30;99.90
17813;DHT22;9030;50.792;8.320;2023-05-14T00:42:25;7.20;99.90
17813;DHT22;9030;50.792;8.320;2023-05-14T00:44:52;7.20;99.90
17813;DHT22;9030;50.792;8.320;2023-05-14T00:47:18;7.20;99.90
17813;DHT22;9030;50.792;8.320;2023-05-14T00:49:47;7.20;99.90
17813;DHT22;9030;50.792;8.320;2023-05-14T00:52:14;7.20;99.90
17813;DHT22;9030;50.792;8.320;2023-05-14T00:54:42;7.20;99.90
17813;DHT22;9030;50.792;8.320;2023-05-14T00:57:10;7.30;99.90
17813;DHT22;9030;50.792;8.320;2023-05-14T00:59:37;7.20;99.90
17813;DHT22;9030;50.792;8.320;2023-05-14T01:02:06;7.20;99.90
17813;DHT22;9030;50.792;8.320;2023-05-14T01:04:32;7.20;99.90
17813;DHT22;9030;50.792;8.320;2023-05-14T01:07:08;7.10;99.90
17813;DHT22;9030;50.792;8.320;2023-05-14T01:09:41;7.00;99.90
17813;DHT22;9030;50.792;8.320;2023-05-14T01:12:16;7.00;99.90
17813;DHT22;9030;50.792;8.320;2023-05-14T01:14:51;7.10;99.90
17813;DHT22;9030;50.792;8.320;2023-05-14T01:17:19;7.10;99.90
17813;DHT22;9030;50.792;8.320;2023-05-14T01:19:48;7.10;99.90
17813;DHT22;9030;50.792;8.320;2023-05-14T01:22:17;7.10;99.90
17813;DHT22;9030;50.792;8.320;2023-05-14T01:24:44;7.10;99.90
17813;DHT22;9030;50.792;8.320;2023-05-14T01:27:16;7.10;99.90
17813;DHT22;9030;50.792;8.320;2023-05-14T01:29:50;7.10;99.90
17813;DHT22;9030;50.792;8.320;2023-05-14T01:32:19;7.20;99.90
17813;DHT22;9030;50.792;8.320;2023-05-14T01:34:50;7.20;99.90
17813;DHT22;9030;50.792;8.320;2023-05-14T01:37:19;7.20;99.90
17813;DHT22;9030;50.792;8.320;2023-05-14T01:39:48;7.10;99.90
17813;DHT22;9030;50.792;8.320;2023-05-14T01:42:15;7.00;99.90
17813;DHT22;9030;50.792;8.320;2023-05-14T01:44:42;7.00;99.90
17813;DHT22;9030;50.792;8.320;2023-05-14T01:47:09;7.10;99.90
17813;DHT22;9030;50.792;8.320;2023-05-14T01:49:36;7.00;99.90
17813;DHT22;9030;50.792;8.320;2023-05-14T01:52:03;7.00;99.90
17813;DHT22;9030;50.792;8.320;2023-05-14T01:54:31;6.90;99.90
17813;DHT22;9030;50.792;8.320;2023-05-14T01:56:58;6.80;99.90
17813;DHT22;9030;50.792;8.320;2023-05-14T01:59:24;6.80;99.90
17813;DHT22;9030;50.792;8.320;2023-05-14T02:01:53;6.70;99.90
17813;DHT22;9030;50.792;8.320;2023-05-14T02:04:20;6.60;99.90
17813;DHT22;9030;50.792;8.320;2023-05-14T02:06:47;6.60;99.90
17813;DHT22;9030;50.792;8.320;2023-05-14T02:09:14;6.50;99.90
17813;DHT22;9030;50.792;8.320;2023-05-14T02:11:42;6.50;99.90
17813;DHT22;9030;50.792;8.320;2023-05-14T02:14:08;6.50;99.90
17813;DHT22;9030;50.792;8.320;2023-05-14T02:16:35;6.50;99.90
17813;DHT22;9030;50.792;8.320;2023-05-14T02:19:02;6.40;99.90
17813;DHT22;9030;50.792;8.320;2023-05-14T02:21:29;6.30;99.90
17813;DHT22;9030;50.792;8.320;2023-05-14T02:23:56;6.30;99.90
17813;DHT22;9030;50.792;8.320;2023-05-14T02:26:23;6.30;99.90
17813;DHT22;9030;50.792;8.320;2023-05-14T02:28:52;6.30;99.90
17813;DHT22;9030;50.792;8.320;2023-05-14T02:31:19;6.30;99.90
17813;DHT22;9030;50.792;8.320;2023-05-14T02:33:45;6.30;99.90
17813;DHT22;9030;50.792;8.320;2023-05-14T02:36:12;6.50;99.90
17813;DHT22;9030;50.792;8.320;2023-05-14T02:38:39;6.40;99.90
17813;DHT22;9030;50.792;8.320;2023-05-14T02:41:06;6.40;99.90
17813;DHT22;9030;50.792;8.320;2023-05-14T02:43:32;6.40;99.90
17813;DHT22;9030;50.792;8.320;2023-05-14T02:46:00;6.20;99.90
17813;DHT22;9030;50.792;8.320;2023-05-14T02:48:27;6.20;99.90
17813;DHT22;9030;50.792;8.320;2023-05-14T02:50:54;6.10;99.90
17813;DHT22;9030;50.792;8.320;2023-05-14T02:53:20;6.20;99.90
17813;DHT22;9030;50.792;8.320;2023-05-14T02:55:47;6.20;99.90
17813;DHT22;9030;50.792;8.320;2023-05-14T02:58:14;6.10;99.90
17813;DHT22;9030;50.792;8.320;2023-05-14T03:00:41;6.10;99.90
17813;DHT22;9030;50.792;8.320;2023-05-14T03:03:09;6.00;99.90
17813;DHT22;9030;50.792;8.320;2023-05-14T03:05:35;6.00;99.90
17813;DHT22;9030;50.792;8.320;2023-05-14T03:08:02;6.00;99.90
17813;DHT22;9030;50.792;8.320;2023-05-14T03:10:29;6.10;99.90
17813;DHT22;9030;50.792;8.320;2023-05-14T03:12:57;6.10;99.90
17813;DHT22;9030;50.792;8.320;2023-05-14T03:15:24;6.10;99.90
17813;DHT22;9030;50.792;8.320;2023-05-14T03:17:50;6.00;99.90
17813;DHT22;9030;50.792;8.320;2023-05-14T03:20:18;6.10;99.90
17813;DHT22;9030;50.792;8.320;2023-05-14T03:22:45;6.10;99.90
17813;DHT22;9030;50.792;8.320;2023-05-14T03:25:12;6.10;99.90
17813;DHT22;9030;50.792;8.320;2023-05-14T03:27:39;6.10;99.90
17813;DHT22;9030;50.792;8.320;2023-05-14T03:30:07;6.10;99.90
17813;DHT22;9030;50.792;8.320;2023-05-14T03:32:33;6.10;99.90
17813;DHT22;9030;50.792;8.320;2023-05-14T03:35:00;6.10;99.90
17813;DHT22;9030;50.792;8.320;2023-05-14T03:37:28;6.00;99.90
17813;DHT22;9030;50.792;8.320;2023-05-14T03:39:55;6.00;99.90
17813;DHT22;9030;50.792;8.320;2023-05-14T03:42:22;6.00;99.90
17813;DHT22;9030;50.792;8.320;2023-05-14T03:44:48;6.00;99.90
17813;DHT22;9030;50.792;8.320;2023-05-14T03:47:15;5.90;99.90
17813;DHT22;9030;50.792;8.320;2023-05-14T03:49:42;5.90;99.90
17813;DHT22;9030;50.792;8.320;2023-05-14T03:52:08;5.90;99.90
17813;DHT22;9030;50.792;8.320;2023-05-14T03:54:36;5.90;99.90
17813;DHT22;9030;50.792;8.320;2023-05-14T03:57:05;6.00;99.90
17813;DHT22;9030;50.792;8.320;2023-05-14T03:59:32;6.10;99.90
17813;DHT22;9030;50.792;8.320;2023-05-14T04:01:59;6.10;99.90
17813;DHT22;9030;50.792;8.320;2023-05-14T04:04:26;6.20;99.90
17813;DHT22;9030;50.792;8.320;2023-05-14T04:06:52;6.20;99.90
17813;DHT22;9030;50.792;8.320;2023-05-14T04:09:19;6.20;99.90
17813;DHT22;9030;50.792;8.320;2023-05-14T04:11:47;6.20;99.90
17813;DHT22;9030;50.792;8.320;2023-05-14T04:14:14;6.30;99.90
17813;DHT22;9030;50.792;8.320;2023-05-14T04:16:41;6.30;99.90
17813;DHT22;9030;50.792;8.320;2023-05-14T04:19:07;6.40;99.90
17813;DHT22;9030;50.792;8.320;2023-05-14T04:21:34;6.40;99.90
17813;DHT22;9030;50.792;8.320;2023-05-14T04:24:01;6.50;99.90
17813;DHT22;9030;50.792;8.320;2023-05-14T04:26:28;6.60;99.90
17813;DHT22;9030;50.792;8.320;2023-05-14T04:28:56;6.70;99.90
17813;DHT22;9030;50.792;8.320;2023-05-14T04:31:25;6.80;99.90
17813;DHT22;9030;50.792;8.320;2023-05-14T04:33:52;7.00;99.90
17813;DHT22;9030;50.792;8.320;2023-05-14T04:36:19;7.10;99.90
17813;DHT22;9030;50.792;8.320;2023-05-14T04:38:45;7.10;99.90
17813;DHT22;9030;50.792;8.320;2023-05-14T04:41:12;7.20;99.90
17813;DHT22;9030;50.792;8.320;2023-05-14T04:43:39;7.30;99.90
17813;DHT22;9030;50.792;8.320;2023-05-14T04:46:07;7.20;99.90
17813;DHT22;9030;50.792;8.320;2023-05-14T04:48:34;7.30;99.90
17813;DHT22;9030;50.792;8.320;2023-05-14T04:51:00;7.30;99.90
17813;DHT22;9030;50.792;8.320;2023-05-14T04:53:27;7.60;99.90
17813;DHT22;9030;50.792;8.320;2023-05-14T04:55:54;7.80;99.90
17813;DHT22;9030;50.792;8.320;2023-05-14T04:58:21;8.00;99.90
17813;DHT22;9030;50.792;8.320;2023-05-14T05:00:48;8.30;99.90
17813;DHT22;9030;50.792;8.320;2023-05-14T05:03:16;8.60;99.90
17813;DHT22;9030;50.792;8.320;2023-05-14T05:05:43;8.70;99.90
17813;DHT22;9030;50.792;8.320;2023-05-14T05:08:10;8.80;99.90
17813;DHT22;9030;50.792;8.320;2023-05-14T05:10:37;8.70;99.90
17813;DHT22;9030;50.792;8.320;2023-05-14T05:13:03;8.80;99.90
17813;DHT22;9030;50.792;8.320;2023-05-14T05:15:30;8.80;99.90
17813;DHT22;9030;50.792;8.320;2023-05-14T05:17:57;9.20;99.90
17813;DHT22;9030;50.792;8.320;2023-05-14T05:20:25;9.50;99.90
17813;DHT22;9030;50.792;8.320;2023-05-14T05:22:52;9.80;99.90
17813;DHT22;9030;50.792;8.320;2023-05-14T05:25:19;10.00;99.90
17813;DHT22;9030;50.792;8.320;2023-05-14T05:27:46;10.30;99.90
17813;DHT22;9030;50.792;8.320;2023-05-14T05:30:13;10.50;99.90
17813;DHT22;9030;50.792;8.320;2023-05-14T05:32:39;10.70;99.90
17813;DHT22;9030;50.792;8.320;2023-05-14T05:35:07;10.60;99.90
17813;DHT22;9030;50.792;8.320;2023-05-14T05:37:35;10.70;99.90
17813;DHT22;9030;50.792;8.320;2023-05-14T05:40:02;10.90;99.90
17813;DHT22;9030;50.792;8.320;2023-05-14T05:42:30;11.00;99.90
17813;DHT22;9030;50.792;8.320;2023-05-14T05:44:56;11.10;99.90
17813;DHT22;9030;50.792;8.320;2023-05-14T05:47:23;11.20;99.90
17813;DHT22;9030;50.792;8.320;2023-05-14T05:49:50;11.20;99.90
17813;DHT22;9030;50.792;8.320;2023-05-14T05:52:18;11.40;99.90
17813;DHT22;9030;50.792;8.320;2023-05-14T05:54:46;11.60;99.90
17813;DHT22;9030;50.792;8.320;2023-05-14T05:57:13;11.70;99.90
17813;DHT22;9030;50.792;8.320;2023-05-14T05:59:40;12.00;99.90
17813;DHT22;9030;50.792;8.320;2023-05-14T06:02:07;12.30;99.90
17813;DHT22;9030;50.792;8.320;2023-05-14T06:04:34;12.30;99.90
17813;DHT22;9030;50.792;8.320;2023-05-14T06:07:00;12.50;99.90
17813;DHT22;9030;50.792;8.320;2023-05-14T06:09:27;12.60;99.90
17813;DHT22;9030;50.792;8.320;2023-05-14T06:11:56;12.80;99.90
17813;DHT22;9030;50.792;8.320;2023-05-14T06:14:23;12.70;99.90
17813;DHT22;9030;50.792;8.320;2023-05-14T06:16:49;12.80;99.90
17813;DHT22;9030;50.792;8.320;2023-05-14T06:19:16;13.10;99.90
17813;DHT22;9030;50.792;8.320;2023-05-14T06:21:43;13.20;99.90
17813;DHT22;9030;50.792;8.320;2023-05-14T06:24:10;13.40;99.90
17813;DHT22;9030;50.792;8.320;2023-05-14T06:26:37;13.60;99.90
17813;DHT22;9030;50.792;8.320;2023-05-14T06:29:06;13.70;99.90
17813;DHT22;9030;50.792;8.320;2023-05-14T06:31:32;13.70;99.90
17813;DHT22;9030;50.792;8.320;2023-05-14T06:33:59;13.90;99.90
17813;DHT22;9030;50.792;8.320;2023-05-14T06:36:26;14.10;99.90
17813;DHT22;9030;50.792;8.320;2023-05-14T06:38:53;13.80;99.90
17813;DHT22;9030;50.792;8.320;2023-05-14T06:41:20;14.10;99.90
17813;DHT22;9030;50.792;8.320;2023-05-14T06:43:47;14.30;99.90
17813;DHT22;9030;50.792;8.320;2023-05-14T06:46:18;14.40;99.90
17813;DHT22;9030;50.792;8.320;2023-05-14T06:48:45;14.80;99.90
17813;DHT22;9030;50.792;8.320;2023-05-14T06:51:12;15.00;99.90
17813;DHT22;9030;50.792;8.320;2023-05-14T06:53:39;14.90;99.90
17813;DHT22;9030;50.792;8.320;2023-05-14T06:56:06;14.80;99.90
17813;DHT22;9030;50.792;8.320;2023-05-14T06:58:33;14.80;99.90
17813;DHT22;9030;50.792;8.320;2023-05-14T07:01:00;15.00;99.90
17813;DHT22;9030;50.792;8.320;2023-05-14T07:03:28;15.00;99.90
17813;DHT22;9030;50.792;8.320;2023-05-14T07:05:58;15.30;99.90
17813;DHT22;9030;50.792;8.320;2023-05-14T07:08:25;15.70;99.90
17813;DHT22;9030;50.792;8.320;2023-05-14T07:10:52;15.70;99.90
17813;DHT22;9030;50.792;8.320;2023-05-14T07:13:19;15.80;99.90
17813;DHT22;9030;50.792;8.320;2023-05-14T07:15:49;15.70;99.90
17813;DHT22;9030;50.792;8.320;2023-05-14T07:18:17;16.20;99.90
17813;DHT22;9030;50.792;8.320;2023-05-14T07:20:45;16.10;99.90
17813;DHT22;9030;50.792;8.320;2023-05-14T07:23:12;16.50;99.90
17813;DHT22;9030;50.792;8.320;2023-05-14T07:25:39;16.60;99.90
17813;DHT22;9030;50.792;8.320;2023-05-14T07:28:06;16.00;99.90
17813;DHT22;9030;50.792;8.320;2023-05-14T07:30:33;15.20;99.90
17813;DHT22;9030;50.792;8.320;2023-05-14T07:33:00;15.30;99.90
17813;DHT22;9030;50.792;8.320;2023-05-14T07:35:26;15.50;99.90
17813;DHT22;9030;50.792;8.320;2023-05-14T07:37:55;15.70;99.90
17813;DHT22;9030;50.792;8.320;2023-05-14T07:40:22;16.10;99.90
17813;DHT22;9030;50.792;8.320;2023-05-14T07:42:49;16.50;99.90
17813;DHT22;9030;50.792;8.320;2023-05-14T07:45:16;16.90;99.90
17813;DHT22;9030;50.792;8.320;2023-05-14T07:47:43;17.30;99.90
17813;DHT22;9030;50.792;8.320;2023-05-14T07:50:15;17.70;99.90
17813;DHT22;9030;50.792;8.320;2023-05-14T07:52:44;17.50;99.90
17813;DHT22;9030;50.792;8.320;2023-05-14T07:55:15;17.00;99.90
17813;DHT22;9030;50.792;8.320;2023-05-14T07:57:42;16.30;99.90
17813;DHT22;9030;50.792;8.320;2023-05-14T08:00:11;16.20;99.90
17813;DHT22;9030;50.792;8.320;2023-05-14T08:02:38;15.80;99.90
17813;DHT22;9030;50.792;8.320;2023-05-14T08:05:07;15.40;99.90
17813;DHT22;9030;50.792;8.320;2023-05-14T08:07:35;15.30;99.90
17813;DHT22;9030;50.792;8.320;2023-05-14T08:10:02;15.80;99.90
17813;DHT22;9030;50.792;8.320;2023-05-14T08:12:30;16.50;99.90
17813;DHT22;9030;50.792;8.320;2023-05-14T08:14:57;16.30;99.90
17813;DHT22;9030;50.792;8.320;2023-05-14T08:17:27;15.80;99.90
17813;DHT22;9030;50.792;8.320;2023-05-14T08:20:04;16.20;99.90
17813;DHT22;9030;50.792;8.320;2023-05-14T08:22:42;16.90;99.90
17813;DHT22;9030;50.792;8.320;2023-05-14T08:25:14;16.40;99.90
17813;DHT22;9030;50.792;8.320;2023-05-14T08:27:43;16.40;99.90
17813;DHT22;9030;50.792;8.320;2023-05-14T08:30:10;17.20;99.90
17813;DHT22;9030;50.792;8.320;2023-05-14T08:32:37;17.30;99.90
17813;DHT22;9030;50.792;8.320;2023-05-14T08:35:10;18.00;99.90
17813;DHT22;9030;50.792;8.320;2023-05-14T08:37:37;18.50;99.90
17813;DHT22;9030;50.792;8.320;2023-05-14T08:40:05;18.50;99.90
17813;DHT22;9030;50.792;8.320;2023-05-14T08:42:33;18.50;99.90
17813;DHT22;9030;50.792;8.320;2023-05-14T08:45:05;18.00;99.90
17813;DHT22;9030;50.792;8.320;2023-05-14T08:47:38;18.30;99.90
17813;DHT22;9030;50.792;8.320;2023-05-14T08:50:06;17.60;99.90
17813;DHT22;9030;50.792;8.320;2023-05-14T08:52:38;16.50;99.90
17813;DHT22;9030;50.792;8.320;2023-05-14T08:55:06;16.80;99.90
17813;DHT22;9030;50.792;8.320;2023-05-14T08:57:51;17.00;99.90
17813;DHT22;9030;50.792;8.320;2023-05-14T09:00:24;17.10;99.90
17813;DHT22;9030;50.792;8.320;2023-05-14T09:02:52;17.30;99.90
17813;DHT22;9030;50.792;8.320;2023-05-14T09:05:20;17.20;99.90
17813;DHT22;9030;50.792;8.320;2023-05-14T09:07:47;17.00;99.90
17813;DHT22;9030;50.792;8.320;2023-05-14T09:10:15;17.00;99.90
17813;DHT22;9030;50.792;8.320;2023-05-14T09:12:42;17.50;99.90
17813;DHT22;9030;50.792;8.320;2023-05-14T09:15:09;17.70;99.90
17813;DHT22;9030;50.792;8.320;2023-05-14T09:17:37;18.30;99.90
17813;DHT22;9030;50.792;8.320;2023-05-14T09:20:14;19.00;99.90
17813;DHT22;9030;50.792;8.320;2023-05-14T09:22:41;19.20;99.90
17813;DHT22;9030;50.792;8.320;2023-05-14T09:25:11;18.60;99.90
17813;DHT22;9030;50.792;8.320;2023-05-14T09:27:47;18.40;99.90
17813;DHT22;9030;50.792;8.320;2023-05-14T09:30:23;18.40;99.90
17813;DHT22;9030;50.792;8.320;2023-05-14T09:33:10;18.90;99.90
17813;DHT22;9030;50.792;8.320;2023-05-14T09:35:38;18.10;99.90
17813;DHT22;9030;50.792;8.320;2023-05-14T09:38:17;18.20;99.90
17813;DHT22;9030;50.792;8.320;2023-05-14T09:40:45;18.60;99.90
17813;DHT22;9030;50.792;8.320;2023-05-14T09:43:14;18.90;99.90
17813;DHT22;9030;50.792;8.320;2023-05-14T09:45:46;19.70;99.90
17813;DHT22;9030;50.792;8.320;2023-05-14T09:48:26;19.90;99.90
17813;DHT22;9030;50.792;8.320;2023-05-14T09:50:54;20.00;99.90
17813;DHT22;9030;50.792;8.320;2023-05-14T09:53:29;19.60;99.90
17813;DHT22;9030;50.792;8.320;2023-05-14T09:55:56;19.40;99.90
17813;DHT22;9030;50.792;8.320;2023-05-14T09:58:30;19.50;99.90
17813;DHT22;9030;50.792;8.320;2023-05-14T10:01:06;19.90;99.90
17813;DHT22;9030;50.792;8.320;2023-05-14T10:03:51;19.50;99.90
17813;DHT22;9030;50.792;8.320;2023-05-14T10:06:26;19.10;99.90
17813;DHT22;9030;50.792;8.320;2023-05-14T10:08:59;19.40;99.90
17813;DHT22;9030;50.792;8.320;2023-05-14T10:11:29;19.30;99.90
17813;DHT22;9030;50.792;8.320;2023-05-14T10:14:01;18.90;99.90
17813;DHT22;9030;50.792;8.320;2023-05-14T10:16:36;19.00;99.90
17813;DHT22;9030;50.792;8.320;2023-05-14T10:19:10;19.20;99.90
17813;DHT22;9030;50.792;8.320;2023-05-14T10:22:01;19.20;99.90
17813;DHT22;9030;50.792;8.320;2023-05-14T10:24:44;19.80;99.90
17813;DHT22;9030;50.792;8.320;2023-05-14T10:27:39;20.30;99.90
17813;DHT22;9030;50.792;8.320;2023-05-14T10:30:20;20.60;99.90
17813;DHT22;9030;50.792;8.320;2023-05-14T10:33:08;20.40;99.90
17813;DHT22;9030;50.792;8.320;2023-05-14T10:35:56;19.70;99.90
17813;DHT22;9030;50.792;8.320;2023-05-14T10:38:35;19.20;99.90
17813;DHT22;9030;50.792;8.320;2023-05-14T10:41:15;19.40;99.90
17813;DHT22;9030;50.792;8.320;2023-05-14T10:43:45;19.30;99.90
17813;DHT22;9030;50.792;8.320;2023-05-14T10:46:23;19.20;99.90
17813;DHT22;9030;50.792;8.320;2023-05-14T10:48:51;19.60;99.90
17813;DHT22;9030;50.792;8.320;2023-05-14T10:51:19;19.20;99.90
17813;DHT22;9030;50.792;8.320;2023-05-14T10:53:59;19.30;99.90
17813;DHT22;9030;50.792;8.320;2023-05-14T10:56:27;18.70;99.90
17813;DHT22;9030;50.792;8.320;2023-05-14T10:58:57;19.00;99.90
17813;DHT22;9030;50.792;8.320;2023-05-14T11:01:27;19.40;99.90
17813;DHT22;9030;50.792;8.320;2023-05-14T11:03:57;20.10;99.90
17813;DHT22;9030;50.792;8.320;2023-05-14T11:06:25;20.10;99.90
17813;DHT22;9030;50.792;8.320;2023-05-14T11:08:53;19.30;99.90
17813;DHT22;9030;50.792;8.320;2023-05-14T11:11:20;19.20;99.90
17813;DHT22;9030;50.792;8.320;2023-05-14T11:13:49;19.10;99.90
17813;DHT22;9030;50.792;8.320;2023-05-14T11:16:16;18.80;99.90
17813;DHT22;9030;50.792;8.320;2023-05-14T11:18:44;18.70;99.90
17813;DHT22;9030;50.792;8.320;2023-05-14T11:21:11;19.40;99.90
17813;DHT22;9030;50.792;8.320;2023-05-14T11:23:39;20.60;99.90
17813;DHT22;9030;50.792;8.320;2023-05-14T11:26:06;21.60;99.90
17813;DHT22;9030;50.792;8.320;2023-05-14T11:28:33;20.60;99.90
17813;DHT22;9030;50.792;8.320;2023-05-14T11:31:00;19.80;99.90
17813;DHT22;9030;50.792;8.320;2023-05-14T11:33:27;19.90;99.90
17813;DHT22;9030;50.792;8.320;2023-05-14T11:35:54;19.00;99.90
17813;DHT22;9030;50.792;8.320;2023-05-14T11:38:21;18.30;99.90
17813;DHT22;9030;50.792;8.320;2023-05-14T11:40:52;18.90;99.90
17813;DHT22;9030;50.792;8.320;2023-05-14T11:43:19;19.90;99.90
17813;DHT22;9030;50.792;8.320;2023-05-14T11:45:49;19.90;99.90
17813;DHT22;9030;50.792;8.320;2023-05-14T11:48:16;20.50;99.90
17813;DHT22;9030;50.792;8.320;2023-05-14T11:50:44;20.30;99.90
17813;DHT22;9030;50.792;8.320;2023-05-14T11:53:15;19.00;99.90
17813;DHT22;9030;50.792;8.320;2023-05-14T11:55:42;18.90;99.90
17813;DHT22;9030;50.792;8.320;2023-05-14T11:58:11;19.10;99.90
17813;DHT22;9030;50.792;8.320;2023-05-14T12:00:43;19.50;99.90
17813;DHT22;9030;50.792;8.320;2023-05-14T12:03:11;19.40;99.90
17813;DHT22;9030;50.792;8.320;2023-05-14T12:05:38;19.90;99.90
17813;DHT22;9030;50.792;8.320;2023-05-14T12:08:18;20.50;99.90
17813;DHT22;9030;50.792;8.320;2023-05-14T12:10:46;21.20;99.90
17813;DHT22;9030;50.792;8.320;2023-05-14T12:13:15;21.10;99.90
17813;DHT22;9030;50.792;8.320;2023-05-14T12:15:44;21.10;99.90
17813;DHT22;9030;50.792;8.320;2023-05-14T12:18:11;20.50;99.90
17813;DHT22;9030;50.792;8.320;2023-05-14T12:20:39;20.40;99.90
17813;DHT22;9030;50.792;8.320;2023-05-14T12:23:09;20.30;99.90
17813;DHT22;9030;50.792;8.320;2023-05-14T12:25:37;19.40;99.90
17813;DHT22;9030;50.792;8.320;2023-05-14T12:28:13;19.20;99.90
17813;DHT22;9030;50.792;8.320;2023-05-14T12:30:41;18.90;99.90
17813;DHT22;9030;50.792;8.320;2023-05-14T12:33:08;18.90;99.90
17813;DHT22;9030;50.792;8.320;2023-05-14T12:35:35;18.80;99.90
17813;DHT22;9030;50.792;8.320;2023-05-14T12:38:02;18.90;99.90
17813;DHT22;9030;50.792;8.320;2023-05-14T12:40:29;19.20;99.90
17813;DHT22;9030;50.792;8.320;2023-05-14T12:42:56;19.30;99.90
17813;DHT22;9030;50.792;8.320;2023-05-14T12:45:23;19.60;99.90
17813;DHT22;9030;50.792;8.320;2023-05-14T12:47:51;19.60;99.90
17813;DHT22;9030;50.792;8.320;2023-05-14T12:50:18;20.20;99.90
17813;DHT22;9030;50.792;8.320;2023-05-14T12:52:45;20.20;99.90
17813;DHT22;9030;50.792;8.320;2023-05-14T12:55:12;21.00;99.90
17813;DHT22;9030;50.792;8.320;2023-05-14T12:57:39;21.80;99.90
17813;DHT22;9030;50.792;8.320;2023-05-14T13:00:07;22.00;99.90
17813;DHT22;9030;50.792;8.320;2023-05-14T13:02:35;22.00;99.90
17813;DHT22;9030;50.792;8.320;2023-05-14T13:05:04;21.40;99.90
17813;DHT22;9030;50.792;8.320;2023-05-14T13:07:31;21.20;99.90
17813;DHT22;9030;50.792;8.320;2023-05-14T13:09:57;20.90;99.90
17813;DHT22;9030;50.792;8.320;2023-05-14T13:12:24;21.00;99.90
17813;DHT22;9030;50.792;8.320;2023-05-14T13:14:51;21.00;99.90
17813;DHT22;9030;50.792;8.320;2023-05-14T13:17:18;20.80;99.90
17813;DHT22;9030;50.792;8.320;2023-05-14T13:19:45;20.30;99.90
17813;DHT22;9030;50.792;8.320;2023-05-14T13:22:13;20.40;99.90
17813;DHT22;9030;50.792;8.320;2023-05-14T13:24:41;20.00;99.90
17813;DHT22;9030;50.792;8.320;2023-05-14T13:27:08;20.00;99.90
17813;DHT22;9030;50.792;8.320;2023-05-14T13:29:35;20.00;99.90
17813;DHT22;9030;50.792;8.320;2023-05-14T13:32:02;20.70;99.90
17813;DHT22;9030;50.792;8.320;2023-05-14T13:34:28;21.30;99.90
17813;DHT22;9030;50.792;8.320;2023-05-14T13:36:55;21.80;99.90
17813;DHT22;9030;50.792;8.320;2023-05-14T13:39:23;22.00;99.90
17813;DHT22;9030;50.792;8.320;2023-05-14T13:41:51;21.40;99.90
17813;DHT22;9030;50.792;8.320;2023-05-14T13:44:20;21.80;99.90
17813;DHT22;9030;50.792;8.320;2023-05-14T13:46:47;22.20;99.90
17813;DHT22;9030;50.792;8.320;2023-05-14T13:49:14;22.00;99.90
17813;DHT22;9030;50.792;8.320;2023-05-14T13:51:40;22.10;99.90
17813;DHT22;9030;50.792;8.320;2023-05-14T13:54:07;21.40;99.90
17813;DHT22;9030;50.792;8.320;2023-05-14T13:56:35;20.40;99.90
17813;DHT22;9030;50.792;8.320;2023-05-14T13:59:02;19.80;99.90
17813;DHT22;9030;50.792;8.320;2023-05-14T14:01:29;19.00;99.90
17813;DHT22;9030;50.792;8.320;2023-05-14T14:03:56;18.90;99.90
17813;DHT22;9030;50.792;8.320;2023-05-14T14:06:24;19.00;99.90
17813;DHT22;9030;50.792;8.320;2023-05-14T14:08:51;19.30;99.90
17813;DHT22;9030;50.792;8.320;2023-05-14T14:11:18;20.20;99.90
17813;DHT22;9030;50.792;8.320;2023-05-14T14:13:46;20.00;99.90
17813;DHT22;9030;50.792;8.320;2023-05-14T14:16:13;20.50;99.90
17813;DHT22;9030;50.792;8.320;2023-05-14T14:18:40;20.50;99.90
17813;DHT22;9030;50.792;8.320;2023-05-14T14:21:07;21.20;99.90
17813;DHT22;9030;50.792;8.320;2023-05-14T14:23:34;21.60;99.90
17813;DHT22;9030;50.792;8.320;2023-05-14T14:26:01;21.70;99.90
17813;DHT22;9030;50.792;8.320;2023-05-14T14:28:28;21.90;99.90
17813;DHT22;9030;50.792;8.320;2023-05-14T14:30:56;21.90;99.90
17813;DHT22;9030;50.792;8.320;2023-05-14T14:33:23;21.60;99.90
17813;DHT22;9030;50.792;8.320;2023-05-14T14:35:50;21.60;99.90
17813;DHT22;9030;50.792;8.320;2023-05-14T14:38:17;21.90;99.90
17813;DHT22;9030;50.792;8.320;2023-05-14T14:40:44;21.80;99.90
17813;DHT22;9030;50.792;8.320;2023-05-14T14:43:11;22.30;99.90
17813;DHT22;9030;50.792;8.320;2023-05-14T14:45:38;22.60;99.90
17813;DHT22;9030;50.792;8.320;2023-05-14T14:48:26;22.50;99.90
17813;DHT22;9030;50.792;8.320;2023-05-14T14:50:54;22.40;99.90
17813;DHT22;9030;50.792;8.320;2023-05-14T14:53:21;22.30;99.90
17813;DHT22;9030;50.792;8.320;2023-05-14T14:55:49;22.20;99.90
17813;DHT22;9030;50.792;8.320;2023-05-14T14:58:17;21.50;99.90
17813;DHT22;9030;50.792;8.320;2023-05-14T15:00:44;20.60;99.90
17813;DHT22;9030;50.792;8.320;2023-05-14T15:03:11;20.50;99.90
17813;DHT22;9030;50.792;8.320;2023-05-14T15:05:40;21.00;99.90
17813;DHT22;9030;50.792;8.320;2023-05-14T15:08:07;21.30;99.90
17813;DHT22;9030;50.792;8.320;2023-05-14T15:10:34;21.20;99.90
17813;DHT22;9030;50.792;8.320;2023-05-14T15:13:02;21.00;99.90
17813;DHT22;9030;50.792;8.320;2023-05-14T15:15:29;20.40;99.90
17813;DHT22;9030;50.792;8.320;2023-05-14T15:17:56;20.50;99.90
17813;DHT22;9030;50.792;8.320;2023-05-14T15:20:23;20.70;99.90
17813;DHT22;9030;50.792;8.320;2023-05-14T15:22:51;20.80;99.90
17813;DHT22;9030;50.792;8.320;2023-05-14T15:25:18;21.10;99.90
17813;DHT22;9030;50.792;8.320;2023-05-14T15:27:45;21.40;99.90
17813;DHT22;9030;50.792;8.320;2023-05-14T15:30:13;21.10;99.90
17813;DHT22;9030;50.792;8.320;2023-05-14T15:32:40;20.80;99.90
17813;DHT22;9030;50.792;8.320;2023-05-14T15:35:07;20.80;99.90
17813;DHT22;9030;50.792;8.320;2023-05-14T15:37:36;21.00;99.90
17813;DHT22;9030;50.792;8.320;2023-05-14T15:40:05;21.00;99.90
17813;DHT22;9030;50.792;8.320;2023-05-14T15:42:33;21.50;99.90
17813;DHT22;9030;50.792;8.320;2023-05-14T15:44:59;21.50;99.90
17813;DHT22;9030;50.792;8.320;2023-05-14T15:47:26;20.60;99.90
17813;DHT22;9030;50.792;8.320;2023-05-14T15:49:53;20.10;99.90
17813;DHT22;9030;50.792;8.320;2023-05-14T15:52:20;19.50;99.90
17813;DHT22;9030;50.792;8.320;2023-05-14T15:54:47;18.50;99.90
17813;DHT22;9030;50.792;8.320;2023-05-14T15:57:15;17.70;99.90
17813;DHT22;9030;50.792;8.320;2023-05-14T15:59:42;17.20;99.90